sensor_id;sensor_type;location;lat;lon;timestamp;P1;durP1;ratioP1;P2;durP2;ratioP2
10226;SDS011;15634;48.766;2.272;2023-07-31T00:00:13;7.55;;;3.17;;
10226;SDS011;15634;48.766;2.272;2023-07-31T00:02:39;8.75;;;3.35;;
10226;SDS011;15634;48.766;2.272;2023-07-31T00:05:07;9.05;;;3.58;;
10226;SDS011;15634;48.766;2.272;2023-07-31T00:07:34;7.47;;;3.40;;
10226;SDS011;15634;48.766;2.272;2023-07-31T00:10:01;10.23;;;3.60;;
10226;SDS011;15634;48.766;2.272;2023-07-31T00:12:29;7.35;;;3.17;;
10226;SDS011;15634;48.766;2.272;2023-07-31T00:14:55;11.18;;;5.35;;
10226;SDS011;15634;48.766;2.272;2023-07-31T00:17:22;9.48;;;4.35;;
10226;SDS011;15634;48.766;2.272;2023-07-31T00:19:49;9.55;;;4.85;;
10226;SDS011;15634;48.766;2.272;2023-07-31T00:22:15;16.77;;;8.88;;
10226;SDS011;15634;48.766;2.272;2023-07-31T00:24:42;5.03;;;2.83;;
10226;SDS011;15634;48.766;2.272;2023-07-31T00:27:09;8.05;;;3.72;;
10226;SDS011;15634;48.766;2.272;2023-07-31T00:29:37;12.07;;;6.43;;
10226;SDS011;15634;48.766;2.272;2023-07-31T00:32:04;12.30;;;7.25;;
10226;SDS011;15634;48.766;2.272;2023-07-31T00:34:31;8.63;;;3.72;;
10226;SDS011;15634;48.766;2.272;2023-07-31T00:36:58;7.75;;;3.22;;
10226;SDS011;15634;48.766;2.272;2023-07-31T00:39:24;7.32;;;3.40;;
10226;SDS011;15634;48.766;2.272;2023-07-31T00:41:51;8.05;;;3.58;;
10226;SDS011;15634;48.766;2.272;2023-07-31T00:44:17;6.32;;;3.22;;
10226;SDS011;15634;48.766;2.272;2023-07-31T00:46:45;9.45;;;3.45;;
10226;SDS011;15634;48.766;2.272;2023-07-31T00:49:12;8.77;;;3.33;;
10226;SDS011;15634;48.766;2.272;2023-07-31T00:51:39;6.38;;;3.05;;
10226;SDS011;15634;48.766;2.272;2023-07-31T00:54:06;7.13;;;3.45;;
10226;SDS011;15634;48.766;2.272;2023-07-31T00:56:32;5.28;;;3.05;;
10226;SDS011;15634;48.766;2.272;2023-07-31T00:58:59;6.45;;;3.20;;
10226;SDS011;15634;48.766;2.272;2023-07-31T01:01:26;7.07;;;3.42;;
10226;SDS011;15634;48.766;2.272;2023-07-31T01:03:55;7.78;;;3.90;;
10226;SDS011;15634;48.766;2.272;2023-07-31T01:06:23;7.03;;;3.60;;
10226;SDS011;15634;48.766;2.272;2023-07-31T01:08:57;5.50;;;3.05;;
10226;SDS011;15634;48.766;2.272;2023-07-31T01:11:28;7.72;;;3.58;;
10226;SDS011;15634;48.766;2.272;2023-07-31T01:13:57;7.38;;;3.72;;
10226;SDS011;15634;48.766;2.272;2023-07-31T01:16:24;7.57;;;3.45;;
10226;SDS011;15634;48.766;2.272;2023-07-31T01:18:51;9.15;;;3.08;;
10226;SDS011;15634;48.766;2.272;2023-07-31T01:21:44;7.90;;;3.92;;
10226;SDS011;15634;48.766;2.272;2023-07-31T01:24:22;7.38;;;3.45;;
10226;SDS011;15634;48.766;2.272;2023-07-31T01:26:52;5.57;;;3.03;;
10226;SDS011;15634;48.766;2.272;2023-07-31T01:29:23;6.72;;;3.03;;
10226;SDS011;15634;48.766;2.272;2023-07-31T01:31:55;6.55;;;3.30;;
10226;SDS011;15634;48.766;2.272;2023-07-31T01:34:23;6.78;;;2.90;;
10226;SDS011;15634;48.766;2.272;2023-07-31T01:36:49;9.20;;;3.72;;
10226;SDS011;15634;48.766;2.272;2023-07-31T01:39:16;7.22;;;3.38;;
10226;SDS011;15634;48.766;2.272;2023-07-31T01:41:43;7.13;;;3.20;;
10226;SDS011;15634;48.766;2.272;2023-07-31T01:44:11;7.82;;;3.38;;
10226;SDS011;15634;48.766;2.272;2023-07-31T01:46:38;8.13;;;2.97;;
10226;SDS011;15634;48.766;2.272;2023-07-31T01:49:05;5.97;;;3.05;;
10226;SDS011;15634;48.766;2.272;2023-07-31T01:51:32;7.60;;;3.15;;
10226;SDS011;15634;48.766;2.272;2023-07-31T01:54:00;8.50;;;3.47;;
10226;SDS011;15634;48.766;2.272;2023-07-31T01:56:27;6.50;;;3.25;;
10226;SDS011;15634;48.766;2.272;2023-07-31T01:58:53;9.10;;;3.42;;
10226;SDS011;15634;48.766;2.272;2023-07-31T02:01:21;6.43;;;3.05;;
10226;SDS011;15634;48.766;2.272;2023-07-31T02:03:48;5.88;;;3.10;;
10226;SDS011;15634;48.766;2.272;2023-07-31T02:06:15;7.07;;;2.90;;
10226;SDS011;15634;48.766;2.272;2023-07-31T02:08:41;7.80;;;3.22;;
10226;SDS011;15634;48.766;2.272;2023-07-31T02:11:08;6.95;;;3.00;;
10226;SDS011;15634;48.766;2.272;2023-07-31T02:13:35;8.57;;;3.40;;
10226;SDS011;15634;48.766;2.272;2023-07-31T02:16:01;6.60;;;3.25;;
10226;SDS011;15634;48.766;2.272;2023-07-31T02:18:29;7.60;;;3.33;;
10226;SDS011;15634;48.766;2.272;2023-07-31T02:20:56;7.03;;;3.20;;
10226;SDS011;15634;48.766;2.272;2023-07-31T02:23:22;5.88;;;3.20;;
10226;SDS011;15634;48.766;2.272;2023-07-31T02:25:49;14.68;;;7.13;;
10226;SDS011;15634;48.766;2.272;2023-07-31T02:28:16;9.18;;;3.58;;
10226;SDS011;15634;48.766;2.272;2023-07-31T02:30:43;7.32;;;3.25;;
10226;SDS011;15634;48.766;2.272;2023-07-31T02:33:10;7.22;;;3.28;;
10226;SDS011;15634;48.766;2.272;2023-07-31T02:35:38;8.77;;;3.42;;
10226;SDS011;15634;48.766;2.272;2023-07-31T02:38:05;6.72;;;2.95;;
10226;SDS011;15634;48.766;2.272;2023-07-31T02:40:31;6.80;;;2.90;;
10226;SDS011;15634;48.766;2.272;2023-07-31T02:42:58;6.30;;;2.72;;
10226;SDS011;15634;48.766;2.272;2023-07-31T02:45:25;11.60;;;3.05;;
10226;SDS011;15634;48.766;2.272;2023-07-31T02:47:51;7.47;;;2.80;;
10226;SDS011;15634;48.766;2.272;2023-07-31T02:50:18;7.03;;;3.00;;
10226;SDS011;15634;48.766;2.272;2023-07-31T02:52:46;6.10;;;3.05;;
10226;SDS011;15634;48.766;2.272;2023-07-31T02:55:12;5.75;;;2.80;;
10226;SDS011;15634;48.766;2.272;2023-07-31T02:57:39;5.82;;;3.03;;
10226;SDS011;15634;48.766;2.272;2023-07-31T03:00:06;6.22;;;3.20;;
10226;SDS011;15634;48.766;2.272;2023-07-31T03:02:34;7.10;;;2.90;;
10226;SDS011;15634;48.766;2.272;2023-07-31T03:05:01;7.57;;;3.05;;
10226;SDS011;15634;48.766;2.272;2023-07-31T03:07:27;8.20;;;3.40;;
10226;SDS011;15634;48.766;2.272;2023-07-31T03:09:56;5.45;;;2.97;;
10226;SDS011;15634;48.766;2.272;2023-07-31T03:12:23;6.78;;;3.17;;
10226;SDS011;15634;48.766;2.272;2023-07-31T03:14:49;6.82;;;3.00;;
10226;SDS011;15634;48.766;2.272;2023-07-31T03:17:16;7.35;;;3.13;;
10226;SDS011;15634;48.766;2.272;2023-07-31T03:19:43;5.50;;;2.95;;
10226;SDS011;15634;48.766;2.272;2023-07-31T03:22:09;10.00;;;3.17;;
10226;SDS011;15634;48.766;2.272;2023-07-31T03:24:36;6.78;;;3.30;;
10226;SDS011;15634;48.766;2.272;2023-07-31T03:27:04;6.00;;;2.83;;
10226;SDS011;15634;48.766;2.272;2023-07-31T03:29:32;7.43;;;3.10;;
10226;SDS011;15634;48.766;2.272;2023-07-31T03:31:58;9.88;;;3.22;;
10226;SDS011;15634;48.766;2.272;2023-07-31T03:34:25;5.05;;;2.63;;
10226;SDS011;15634;48.766;2.272;2023-07-31T03:36:52;8.00;;;3.03;;
10226;SDS011;15634;48.766;2.272;2023-07-31T03:39:20;6.47;;;2.92;;
10226;SDS011;15634;48.766;2.272;2023-07-31T03:41:46;5.88;;;3.15;;
10226;SDS011;15634;48.766;2.272;2023-07-31T03:44:14;6.55;;;2.95;;
10226;SDS011;15634;48.766;2.272;2023-07-31T03:46:41;6.95;;;3.20;;
10226;SDS011;15634;48.766;2.272;2023-07-31T03:49:08;7.65;;;3.20;;
10226;SDS011;15634;48.766;2.272;2023-07-31T03:51:34;5.95;;;2.97;;
10226;SDS011;15634;48.766;2.272;2023-07-31T03:54:01;5.13;;;2.80;;
10226;SDS011;15634;48.766;2.272;2023-07-31T03:56:27;7.63;;;3.03;;
10226;SDS011;15634;48.766;2.272;2023-07-31T03:58:54;5.78;;;2.60;;
10226;SDS011;15634;48.766;2.272;2023-07-31T04:01:22;6.75;;;3.15;;
10226;SDS011;15634;48.766;2.272;2023-07-31T04:03:48;5.63;;;3.00;;
10226;SDS011;15634;48.766;2.272;2023-07-31T04:06:15;6.22;;;3.08;;
10226;SDS011;15634;48.766;2.272;2023-07-31T04:08:43;6.38;;;3.00;;
10226;SDS011;15634;48.766;2.272;2023-07-31T04:11:09;6.90;;;2.83;;
10226;SDS011;15634;48.766;2.272;2023-07-31T04:13:36;6.72;;;2.88;;
10226;SDS011;15634;48.766;2.272;2023-07-31T04:16:03;5.20;;;2.92;;
10226;SDS011;15634;48.766;2.272;2023-07-31T04:18:31;9.88;;;3.30;;
10226;SDS011;15634;48.766;2.272;2023-07-31T04:20:58;7.45;;;2.80;;
10226;SDS011;15634;48.766;2.272;2023-07-31T04:23:26;8.35;;;3.40;;
10226;SDS011;15634;48.766;2.272;2023-07-31T04:25:53;7.45;;;3.00;;
10226;SDS011;15634;48.766;2.272;2023-07-31T04:28:19;8.57;;;3.15;;
10226;SDS011;15634;48.766;2.272;2023-07-31T04:30:46;5.30;;;3.35;;
10226;SDS011;15634;48.766;2.272;2023-07-31T04:33:13;6.93;;;3.17;;
10226;SDS011;15634;48.766;2.272;2023-07-31T04:35:41;5.90;;;3.20;;
10226;SDS011;15634;48.766;2.272;2023-07-31T04:38:08;10.65;;;3.60;;
10226;SDS011;15634;48.766;2.272;2023-07-31T04:40:34;6.93;;;3.20;;
10226;SDS011;15634;48.766;2.272;2023-07-31T04:43:01;6.50;;;3.13;;
10226;SDS011;15634;48.766;2.272;2023-07-31T04:45:28;6.40;;;3.33;;
10226;SDS011;15634;48.766;2.272;2023-07-31T04:47:54;6.90;;;3.42;;
10226;SDS011;15634;48.766;2.272;2023-07-31T04:50:21;7.93;;;3.38;;
10226;SDS011;15634;48.766;2.272;2023-07-31T04:52:49;8.88;;;3.67;;
10226;SDS011;15634;48.766;2.272;2023-07-31T04:55:15;6.80;;;3.50;;
10226;SDS011;15634;48.766;2.272;2023-07-31T04:57:42;8.73;;;3.50;;
10226;SDS011;15634;48.766;2.272;2023-07-31T05:00:09;7.80;;;3.50;;
10226;SDS011;15634;48.766;2.272;2023-07-31T05:02:36;9.20;;;3.78;;
10226;SDS011;15634;48.766;2.272;2023-07-31T05:05:03;8.93;;;3.78;;
10226;SDS011;15634;48.766;2.272;2023-07-31T05:07:30;11.68;;;3.78;;
10226;SDS011;15634;48.766;2.272;2023-07-31T05:09:58;8.85;;;3.70;;
10226;SDS011;15634;48.766;2.272;2023-07-31T05:12:25;9.23;;;4.13;;
10226;SDS011;15634;48.766;2.272;2023-07-31T05:14:51;11.00;;;4.38;;
10226;SDS011;15634;48.766;2.272;2023-07-31T05:17:18;11.55;;;3.88;;
10226;SDS011;15634;48.766;2.272;2023-07-31T05:19:44;9.25;;;3.95;;
10226;SDS011;15634;48.766;2.272;2023-07-31T05:22:11;4.95;;;2.83;;
10226;SDS011;15634;48.766;2.272;2023-07-31T05:24:38;13.35;;;3.78;;
10226;SDS011;15634;48.766;2.272;2023-07-31T05:27:06;9.52;;;4.47;;
10226;SDS011;15634;48.766;2.272;2023-07-31T05:29:33;9.63;;;4.18;;
10226;SDS011;15634;48.766;2.272;2023-07-31T05:31:59;5.63;;;3.13;;
10226;SDS011;15634;48.766;2.272;2023-07-31T05:34:26;6.78;;;2.85;;
10226;SDS011;15634;48.766;2.272;2023-07-31T05:36:53;6.55;;;3.28;;
10226;SDS011;15634;48.766;2.272;2023-07-31T05:39:19;7.65;;;3.33;;
10226;SDS011;15634;48.766;2.272;2023-07-31T05:41:46;7.63;;;3.20;;
10226;SDS011;15634;48.766;2.272;2023-07-31T05:44:14;10.88;;;3.88;;
10226;SDS011;15634;48.766;2.272;2023-07-31T05:46:41;8.85;;;4.10;;
10226;SDS011;15634;48.766;2.272;2023-07-31T05:49:08;8.70;;;3.97;;
10226;SDS011;15634;48.766;2.272;2023-07-31T05:51:34;9.50;;;4.30;;
10226;SDS011;15634;48.766;2.272;2023-07-31T05:54:01;7.60;;;4.13;;
10226;SDS011;15634;48.766;2.272;2023-07-31T05:56:27;9.40;;;3.72;;
10226;SDS011;15634;48.766;2.272;2023-07-31T05:58:54;9.18;;;3.92;;
10226;SDS011;15634;48.766;2.272;2023-07-31T06:01:23;9.85;;;4.22;;
10226;SDS011;15634;48.766;2.272;2023-07-31T06:03:50;8.07;;;4.00;;
10226;SDS011;15634;48.766;2.272;2023-07-31T06:06:16;8.60;;;3.92;;
10226;SDS011;15634;48.766;2.272;2023-07-31T06:08:43;12.05;;;4.30;;
10226;SDS011;15634;48.766;2.272;2023-07-31T06:11:10;9.73;;;4.43;;
10226;SDS011;15634;48.766;2.272;2023-07-31T06:13:36;8.88;;;3.95;;
10226;SDS011;15634;48.766;2.272;2023-07-31T06:16:03;8.98;;;4.00;;
10226;SDS011;15634;48.766;2.272;2023-07-31T06:18:32;10.57;;;4.40;;
10226;SDS011;15634;48.766;2.272;2023-07-31T06:20:59;11.93;;;4.45;;
10226;SDS011;15634;48.766;2.272;2023-07-31T06:23:26;8.98;;;3.83;;
10226;SDS011;15634;48.766;2.272;2023-07-31T06:25:52;8.35;;;4.10;;
10226;SDS011;15634;48.766;2.272;2023-07-31T06:28:19;7.72;;;4.20;;
10226;SDS011;15634;48.766;2.272;2023-07-31T06:30:46;14.40;;;4.70;;
10226;SDS011;15634;48.766;2.272;2023-07-31T06:33:12;10.57;;;5.07;;
10226;SDS011;15634;48.766;2.272;2023-07-31T06:35:40;13.48;;;4.65;;
10226;SDS011;15634;48.766;2.272;2023-07-31T06:38:07;8.38;;;4.35;;
10226;SDS011;15634;48.766;2.272;2023-07-31T06:40:34;10.02;;;4.40;;
10226;SDS011;15634;48.766;2.272;2023-07-31T06:43:00;11.82;;;4.78;;
10226;SDS011;15634;48.766;2.272;2023-07-31T06:45:32;12.75;;;4.63;;
10226;SDS011;15634;48.766;2.272;2023-07-31T06:47:59;10.80;;;3.95;;
10226;SDS011;15634;48.766;2.272;2023-07-31T06:50:26;8.52;;;3.97;;
10226;SDS011;15634;48.766;2.272;2023-07-31T06:52:54;13.27;;;4.88;;
10226;SDS011;15634;48.766;2.272;2023-07-31T06:55:21;11.20;;;4.55;;
10226;SDS011;15634;48.766;2.272;2023-07-31T06:57:49;10.90;;;4.65;;
10226;SDS011;15634;48.766;2.272;2023-07-31T07:00:17;11.95;;;4.78;;
10226;SDS011;15634;48.766;2.272;2023-07-31T07:02:45;12.52;;;5.18;;
10226;SDS011;15634;48.766;2.272;2023-07-31T07:05:12;14.48;;;5.70;;
10226;SDS011;15634;48.766;2.272;2023-07-31T07:07:41;12.23;;;4.80;;
10226;SDS011;15634;48.766;2.272;2023-07-31T07:10:10;8.48;;;4.10;;
10226;SDS011;15634;48.766;2.272;2023-07-31T07:12:36;9.43;;;3.80;;
10226;SDS011;15634;48.766;2.272;2023-07-31T07:15:03;10.68;;;4.35;;
10226;SDS011;15634;48.766;2.272;2023-07-31T07:17:31;10.77;;;4.75;;
10226;SDS011;15634;48.766;2.272;2023-07-31T07:19:57;9.88;;;4.18;;
10226;SDS011;15634;48.766;2.272;2023-07-31T07:22:24;9.02;;;3.78;;
10226;SDS011;15634;48.766;2.272;2023-07-31T07:24:52;7.53;;;3.90;;
10226;SDS011;15634;48.766;2.272;2023-07-31T07:27:20;9.10;;;4.60;;
10226;SDS011;15634;48.766;2.272;2023-07-31T07:29:46;12.10;;;4.78;;
10226;SDS011;15634;48.766;2.272;2023-07-31T07:32:13;12.40;;;5.53;;
10226;SDS011;15634;48.766;2.272;2023-07-31T07:34:40;8.82;;;4.50;;
10226;SDS011;15634;48.766;2.272;2023-07-31T07:37:07;9.25;;;4.65;;
10226;SDS011;15634;48.766;2.272;2023-07-31T07:39:34;12.02;;;4.68;;
10226;SDS011;15634;48.766;2.272;2023-07-31T07:42:00;9.57;;;4.22;;
10226;SDS011;15634;48.766;2.272;2023-07-31T07:44:28;11.77;;;4.55;;
10226;SDS011;15634;48.766;2.272;2023-07-31T07:46:55;9.68;;;4.03;;
10226;SDS011;15634;48.766;2.272;2023-07-31T07:49:22;9.77;;;4.40;;
10226;SDS011;15634;48.766;2.272;2023-07-31T07:51:48;10.00;;;4.40;;
10226;SDS011;15634;48.766;2.272;2023-07-31T07:54:15;7.80;;;4.30;;
10226;SDS011;15634;48.766;2.272;2023-07-31T07:56:42;11.05;;;4.78;;
10226;SDS011;15634;48.766;2.272;2023-07-31T07:59:09;10.32;;;3.85;;
10226;SDS011;15634;48.766;2.272;2023-07-31T08:01:37;9.80;;;4.70;;
10226;SDS011;15634;48.766;2.272;2023-07-31T08:04:04;8.88;;;4.10;;
10226;SDS011;15634;48.766;2.272;2023-07-31T08:06:30;8.68;;;4.70;;
10226;SDS011;15634;48.766;2.272;2023-07-31T08:08:57;9.82;;;4.68;;
10226;SDS011;15634;48.766;2.272;2023-07-31T08:11:24;11.00;;;4.35;;
10226;SDS011;15634;48.766;2.272;2023-07-31T08:13:50;10.98;;;4.15;;
10226;SDS011;15634;48.766;2.272;2023-07-31T08:16:17;11.57;;;4.97;;
10226;SDS011;15634;48.766;2.272;2023-07-31T08:18:45;10.88;;;4.82;;
10226;SDS011;15634;48.766;2.272;2023-07-31T08:21:12;9.55;;;4.40;;
10226;SDS011;15634;48.766;2.272;2023-07-31T08:23:38;7.82;;;4.28;;
10226;SDS011;15634;48.766;2.272;2023-07-31T08:26:05;7.60;;;4.25;;
10226;SDS011;15634;48.766;2.272;2023-07-31T08:28:32;10.27;;;4.25;;
10226;SDS011;15634;48.766;2.272;2023-07-31T08:31:00;8.90;;;4.45;;
10226;SDS011;15634;48.766;2.272;2023-07-31T08:33:26;9.93;;;4.50;;
10226;SDS011;15634;48.766;2.272;2023-07-31T08:35:54;10.63;;;4.25;;
10226;SDS011;15634;48.766;2.272;2023-07-31T08:38:21;10.93;;;4.15;;
10226;SDS011;15634;48.766;2.272;2023-07-31T08:40:50;9.48;;;4.70;;
10226;SDS011;15634;48.766;2.272;2023-07-31T08:43:17;9.25;;;4.88;;
10226;SDS011;15634;48.766;2.272;2023-07-31T08:45:43;9.93;;;4.40;;
10226;SDS011;15634;48.766;2.272;2023-07-31T08:48:10;11.55;;;4.70;;
10226;SDS011;15634;48.766;2.272;2023-07-31T08:50:37;8.15;;;4.18;;
10226;SDS011;15634;48.766;2.272;2023-07-31T08:53:06;9.43;;;4.20;;
10226;SDS011;15634;48.766;2.272;2023-07-31T08:55:32;13.48;;;4.38;;
10226;SDS011;15634;48.766;2.272;2023-07-31T08:57:59;10.60;;;4.35;;
10226;SDS011;15634;48.766;2.272;2023-07-31T09:00:27;10.60;;;4.65;;
10226;SDS011;15634;48.766;2.272;2023-07-31T09:02:55;9.30;;;4.18;;
10226;SDS011;15634;48.766;2.272;2023-07-31T09:05:24;9.45;;;4.20;;
10226;SDS011;15634;48.766;2.272;2023-07-31T09:07:53;9.88;;;4.65;;
10226;SDS011;15634;48.766;2.272;2023-07-31T09:10:22;10.93;;;4.60;;
10226;SDS011;15634;48.766;2.272;2023-07-31T09:12:50;9.73;;;4.75;;
10226;SDS011;15634;48.766;2.272;2023-07-31T09:15:17;8.80;;;4.32;;
10226;SDS011;15634;48.766;2.272;2023-07-31T09:17:44;9.48;;;4.35;;
10226;SDS011;15634;48.766;2.272;2023-07-31T09:20:14;11.50;;;4.45;;
10226;SDS011;15634;48.766;2.272;2023-07-31T09:22:42;9.68;;;4.15;;
10226;SDS011;15634;48.766;2.272;2023-07-31T09:25:16;11.05;;;4.47;;
10226;SDS011;15634;48.766;2.272;2023-07-31T09:27:48;13.02;;;4.63;;
10226;SDS011;15634;48.766;2.272;2023-07-31T09:30:16;11.80;;;4.72;;
10226;SDS011;15634;48.766;2.272;2023-07-31T09:32:43;9.48;;;4.55;;
10226;SDS011;15634;48.766;2.272;2023-07-31T09:35:14;10.27;;;4.82;;
10226;SDS011;15634;48.766;2.272;2023-07-31T09:37:57;10.43;;;4.45;;
10226;SDS011;15634;48.766;2.272;2023-07-31T09:40:25;11.07;;;4.53;;
10226;SDS011;15634;48.766;2.272;2023-07-31T09:42:55;12.43;;;5.03;;
10226;SDS011;15634;48.766;2.272;2023-07-31T09:45:23;9.93;;;4.57;;
10226;SDS011;15634;48.766;2.272;2023-07-31T09:47:49;15.32;;;5.20;;
10226;SDS011;15634;48.766;2.272;2023-07-31T09:50:16;9.43;;;4.95;;
10226;SDS011;15634;48.766;2.272;2023-07-31T09:52:43;12.90;;;7.95;;
10226;SDS011;15634;48.766;2.272;2023-07-31T09:55:10;11.13;;;5.20;;
10226;SDS011;15634;48.766;2.272;2023-07-31T09:57:37;13.00;;;4.55;;
10226;SDS011;15634;48.766;2.272;2023-07-31T10:00:08;10.32;;;4.20;;
10226;SDS011;15634;48.766;2.272;2023-07-31T10:02:35;7.60;;;4.35;;
10226;SDS011;15634;48.766;2.272;2023-07-31T10:05:03;9.45;;;4.43;;
10226;SDS011;15634;48.766;2.272;2023-07-31T10:07:31;10.65;;;4.07;;
10226;SDS011;15634;48.766;2.272;2023-07-31T10:09:58;9.65;;;4.15;;
10226;SDS011;15634;48.766;2.272;2023-07-31T10:12:26;9.40;;;4.40;;
10226;SDS011;15634;48.766;2.272;2023-07-31T10:14:54;8.98;;;4.65;;
10226;SDS011;15634;48.766;2.272;2023-07-31T10:17:22;12.93;;;5.45;;
10226;SDS011;15634;48.766;2.272;2023-07-31T10:19:49;15.95;;;6.20;;
10226;SDS011;15634;48.766;2.272;2023-07-31T10:22:16;10.38;;;4.78;;
10226;SDS011;15634;48.766;2.272;2023-07-31T10:24:43;11.98;;;5.15;;
10226;SDS011;15634;48.766;2.272;2023-07-31T10:27:11;14.27;;;6.82;;
10226;SDS011;15634;48.766;2.272;2023-07-31T10:29:38;10.80;;;4.70;;
10226;SDS011;15634;48.766;2.272;2023-07-31T10:32:05;10.38;;;5.35;;
10226;SDS011;15634;48.766;2.272;2023-07-31T10:34:36;11.98;;;5.60;;
10226;SDS011;15634;48.766;2.272;2023-07-31T10:37:24;10.93;;;5.15;;
10226;SDS011;15634;48.766;2.272;2023-07-31T10:39:58;9.25;;;4.30;;
10226;SDS011;15634;48.766;2.272;2023-07-31T10:42:30;12.45;;;4.78;;
10226;SDS011;15634;48.766;2.272;2023-07-31T10:44:59;10.50;;;4.93;;
10226;SDS011;15634;48.766;2.272;2023-07-31T10:47:27;7.25;;;4.53;;
10226;SDS011;15634;48.766;2.272;2023-07-31T10:52:47;8.77;;;4.63;;
10226;SDS011;15634;48.766;2.272;2023-07-31T10:55:16;9.18;;;4.63;;
10226;SDS011;15634;48.766;2.272;2023-07-31T10:57:49;7.85;;;4.88;;
10226;SDS011;15634;48.766;2.272;2023-07-31T11:00:20;10.27;;;5.53;;
10226;SDS011;15634;48.766;2.272;2023-07-31T11:03:01;11.63;;;5.03;;
10226;SDS011;15634;48.766;2.272;2023-07-31T11:05:43;11.13;;;5.60;;
10226;SDS011;15634;48.766;2.272;2023-07-31T11:08:12;10.75;;;6.30;;
10226;SDS011;15634;48.766;2.272;2023-07-31T11:10:39;11.85;;;5.32;;
10226;SDS011;15634;48.766;2.272;2023-07-31T11:13:06;9.40;;;4.70;;
10226;SDS011;15634;48.766;2.272;2023-07-31T11:15:33;10.85;;;5.35;;
10226;SDS011;15634;48.766;2.272;2023-07-31T11:18:00;12.45;;;5.32;;
10226;SDS011;15634;48.766;2.272;2023-07-31T11:20:30;10.35;;;4.95;;
10226;SDS011;15634;48.766;2.272;2023-07-31T11:22:59;11.02;;;5.72;;
10226;SDS011;15634;48.766;2.272;2023-07-31T11:25:28;13.55;;;5.82;;
10226;SDS011;15634;48.766;2.272;2023-07-31T11:27:55;11.00;;;5.40;;
10226;SDS011;15634;48.766;2.272;2023-07-31T11:30:22;12.40;;;5.28;;
10226;SDS011;15634;48.766;2.272;2023-07-31T11:32:48;10.43;;;5.55;;
10226;SDS011;15634;48.766;2.272;2023-07-31T11:35:16;10.77;;;5.40;;
10226;SDS011;15634;48.766;2.272;2023-07-31T11:37:43;12.00;;;6.13;;
10226;SDS011;15634;48.766;2.272;2023-07-31T11:40:12;14.80;;;8.18;;
10226;SDS011;15634;48.766;2.272;2023-07-31T11:42:38;15.35;;;7.18;;
10226;SDS011;15634;48.766;2.272;2023-07-31T11:45:05;14.98;;;5.82;;
10226;SDS011;15634;48.766;2.272;2023-07-31T11:47:33;16.17;;;7.35;;
10226;SDS011;15634;48.766;2.272;2023-07-31T11:50:00;11.27;;;5.40;;
10226;SDS011;15634;48.766;2.272;2023-07-31T11:52:27;9.25;;;4.90;;
10226;SDS011;15634;48.766;2.272;2023-07-31T11:54:55;10.95;;;5.40;;
10226;SDS011;15634;48.766;2.272;2023-07-31T11:57:23;8.85;;;4.85;;
10226;SDS011;15634;48.766;2.272;2023-07-31T11:59:50;9.35;;;4.72;;
10226;SDS011;15634;48.766;2.272;2023-07-31T12:02:17;10.40;;;4.95;;
10226;SDS011;15634;48.766;2.272;2023-07-31T12:04:45;11.55;;;4.60;;
10226;SDS011;15634;48.766;2.272;2023-07-31T12:07:12;9.43;;;4.80;;
10226;SDS011;15634;48.766;2.272;2023-07-31T12:09:50;10.10;;;4.40;;
10226;SDS011;15634;48.766;2.272;2023-07-31T12:12:19;11.27;;;5.03;;
10226;SDS011;15634;48.766;2.272;2023-07-31T12:14:47;12.55;;;5.63;;
10226;SDS011;15634;48.766;2.272;2023-07-31T12:17:15;10.45;;;4.70;;
10226;SDS011;15634;48.766;2.272;2023-07-31T12:19:43;8.75;;;4.78;;
10226;SDS011;15634;48.766;2.272;2023-07-31T12:22:12;9.00;;;4.30;;
10226;SDS011;15634;48.766;2.272;2023-07-31T12:24:39;9.05;;;4.43;;
10226;SDS011;15634;48.766;2.272;2023-07-31T12:27:10;9.82;;;4.75;;
10226;SDS011;15634;48.766;2.272;2023-07-31T12:29:37;8.63;;;4.88;;
10226;SDS011;15634;48.766;2.272;2023-07-31T12:32:06;12.20;;;4.95;;
10226;SDS011;15634;48.766;2.272;2023-07-31T12:34:45;10.63;;;4.63;;
10226;SDS011;15634;48.766;2.272;2023-07-31T12:37:12;8.88;;;4.78;;
10226;SDS011;15634;48.766;2.272;2023-07-31T12:39:38;7.95;;;5.22;;
10226;SDS011;15634;48.766;2.272;2023-07-31T12:42:05;10.07;;;5.38;;
10226;SDS011;15634;48.766;2.272;2023-07-31T12:44:32;11.00;;;5.00;;
10226;SDS011;15634;48.766;2.272;2023-07-31T12:46:59;9.65;;;4.90;;
10226;SDS011;15634;48.766;2.272;2023-07-31T12:49:27;11.00;;;4.47;;
10226;SDS011;15634;48.766;2.272;2023-07-31T12:51:54;12.10;;;4.95;;
10226;SDS011;15634;48.766;2.272;2023-07-31T12:54:26;12.45;;;5.20;;
10226;SDS011;15634;48.766;2.272;2023-07-31T12:56:53;8.25;;;4.70;;
10226;SDS011;15634;48.766;2.272;2023-07-31T12:59:19;10.27;;;4.97;;
10226;SDS011;15634;48.766;2.272;2023-07-31T13:01:46;9.55;;;4.38;;
10226;SDS011;15634;48.766;2.272;2023-07-31T13:04:13;11.90;;;5.10;;
10226;SDS011;15634;48.766;2.272;2023-07-31T13:06:41;13.55;;;5.60;;
10226;SDS011;15634;48.766;2.272;2023-07-31T13:09:08;11.63;;;5.85;;
10226;SDS011;15634;48.766;2.272;2023-07-31T13:11:35;8.90;;;5.20;;
10226;SDS011;15634;48.766;2.272;2023-07-31T13:14:02;10.77;;;4.40;;
10226;SDS011;15634;48.766;2.272;2023-07-31T13:16:29;12.57;;;5.28;;
10226;SDS011;15634;48.766;2.272;2023-07-31T13:18:55;9.57;;;5.45;;
10226;SDS011;15634;48.766;2.272;2023-07-31T13:21:22;11.07;;;5.47;;
10226;SDS011;15634;48.766;2.272;2023-07-31T13:23:50;7.22;;;4.43;;
10226;SDS011;15634;48.766;2.272;2023-07-31T13:26:17;11.80;;;4.50;;
10226;SDS011;15634;48.766;2.272;2023-07-31T13:28:44;9.45;;;4.60;;
10226;SDS011;15634;48.766;2.272;2023-07-31T13:31:10;9.68;;;4.22;;
10226;SDS011;15634;48.766;2.272;2023-07-31T13:33:37;8.20;;;3.88;;
10226;SDS011;15634;48.766;2.272;2023-07-31T13:36:04;9.55;;;4.07;;
10226;SDS011;15634;48.766;2.272;2023-07-31T13:38:30;9.15;;;4.22;;
10226;SDS011;15634;48.766;2.272;2023-07-31T13:40:59;8.05;;;4.35;;
10226;SDS011;15634;48.766;2.272;2023-07-31T13:43:25;8.15;;;3.90;;
10226;SDS011;15634;48.766;2.272;2023-07-31T13:45:51;6.00;;;3.80;;
10226;SDS011;15634;48.766;2.272;2023-07-31T13:48:17;6.38;;;3.80;;
10226;SDS011;15634;48.766;2.272;2023-07-31T13:50:44;10.15;;;4.00;;
10226;SDS011;15634;48.766;2.272;2023-07-31T13:53:11;6.72;;;3.15;;
10226;SDS011;15634;48.766;2.272;2023-07-31T13:55:37;8.40;;;3.50;;
10226;SDS011;15634;48.766;2.272;2023-07-31T13:58:06;6.18;;;3.20;;
10226;SDS011;15634;48.766;2.272;2023-07-31T14:00:32;6.75;;;3.38;;
10226;SDS011;15634;48.766;2.272;2023-07-31T14:03:00;6.68;;;3.40;;
10226;SDS011;15634;48.766;2.272;2023-07-31T14:05:27;6.82;;;3.83;;
10226;SDS011;15634;48.766;2.272;2023-07-31T14:07:53;6.60;;;3.55;;
10226;SDS011;15634;48.766;2.272;2023-07-31T14:10:20;10.77;;;4.22;;
10226;SDS011;15634;48.766;2.272;2023-07-31T14:12:46;7.00;;;3.47;;
10226;SDS011;15634;48.766;2.272;2023-07-31T14:15:14;6.43;;;3.28;;
10226;SDS011;15634;48.766;2.272;2023-07-31T14:17:41;8.43;;;3.67;;
10226;SDS011;15634;48.766;2.272;2023-07-31T14:20:08;7.88;;;3.40;;
10226;SDS011;15634;48.766;2.272;2023-07-31T14:22:36;10.07;;;4.10;;
10226;SDS011;15634;48.766;2.272;2023-07-31T14:25:03;9.13;;;3.92;;
10226;SDS011;15634;48.766;2.272;2023-07-31T14:27:30;7.82;;;3.90;;
10226;SDS011;15634;48.766;2.272;2023-07-31T14:29:56;9.15;;;4.00;;
10226;SDS011;15634;48.766;2.272;2023-07-31T14:32:24;7.80;;;3.80;;
10226;SDS011;15634;48.766;2.272;2023-07-31T14:34:51;10.02;;;3.88;;
10226;SDS011;15634;48.766;2.272;2023-07-31T14:37:18;9.45;;;3.88;;
10226;SDS011;15634;48.766;2.272;2023-07-31T14:39:44;9.00;;;4.30;;
10226;SDS011;15634;48.766;2.272;2023-07-31T14:42:11;8.63;;;4.10;;
10226;SDS011;15634;48.766;2.272;2023-07-31T14:44:37;7.75;;;3.95;;
10226;SDS011;15634;48.766;2.272;2023-07-31T14:47:04;11.25;;;4.13;;